sensor_id;sensor_type;location;lat;lon;timestamp;P1;durP1;ratioP1;P2;durP2;ratioP2
24644;SDS011;12780;45.502;9.146;2022-11-03T00:02:00;56.60;;;32.05;;
24644;SDS011;12780;45.502;9.146;2022-11-03T00:04:25;63.20;;;34.35;;
24644;SDS011;12780;45.502;9.146;2022-11-03T00:06:52;65.32;;;34.40;;
24644;SDS011;12780;45.502;9.146;2022-11-03T00:09:19;63.30;;;34.70;;
24644;SDS011;12780;45.502;9.146;2022-11-03T00:11:46;69.15;;;36.33;;
24644;SDS011;12780;45.502;9.146;2022-11-03T00:14:14;69.30;;;35.38;;
24644;SDS011;12780;45.502;9.146;2022-11-03T00:16:40;68.05;;;35.47;;
24644;SDS011;12780;45.502;9.146;2022-11-03T00:19:07;66.32;;;34.60;;
24644;SDS011;12780;45.502;9.146;2022-11-03T00:21:33;71.03;;;35.90;;
24644;SDS011;12780;45.502;9.146;2022-11-03T00:23:59;68.68;;;34.65;;
24644;SDS011;12780;45.502;9.146;2022-11-03T00:26:27;66.32;;;36.17;;
24644;SDS011;12780;45.502;9.146;2022-11-03T00:28:55;67.55;;;35.35;;
24644;SDS011;12780;45.502;9.146;2022-11-03T00:31:31;65.07;;;34.60;;
24644;SDS011;12780;45.502;9.146;2022-11-03T00:33:59;66.47;;;35.05;;
24644;SDS011;12780;45.502;9.146;2022-11-03T00:36:26;65.65;;;36.42;;
24644;SDS011;12780;45.502;9.146;2022-11-03T00:38:59;66.53;;;36.17;;
24644;SDS011;12780;45.502;9.146;2022-11-03T00:41:25;65.93;;;34.85;;
24644;SDS011;12780;45.502;9.146;2022-11-03T00:43:51;68.45;;;34.88;;
24644;SDS011;12780;45.502;9.146;2022-11-03T00:46:17;64.22;;;35.40;;
24644;SDS011;12780;45.502;9.146;2022-11-03T00:48:44;62.47;;;34.63;;
24644;SDS011;12780;45.502;9.146;2022-11-03T00:51:19;64.57;;;34.30;;
24644;SDS011;12780;45.502;9.146;2022-11-03T00:53:49;64.45;;;34.78;;
24644;SDS011;12780;45.502;9.146;2022-11-03T00:56:23;65.38;;;34.35;;
24644;SDS011;12780;45.502;9.146;2022-11-03T00:58:54;63.95;;;34.20;;
24644;SDS011;12780;45.502;9.146;2022-11-03T01:01:22;63.20;;;34.50;;
24644;SDS011;12780;45.502;9.146;2022-11-03T01:03:50;62.20;;;35.50;;
24644;SDS011;12780;45.502;9.146;2022-11-03T01:06:40;66.22;;;36.72;;
24644;SDS011;12780;45.502;9.146;2022-11-03T01:09:14;64.45;;;35.13;;
24644;SDS011;12780;45.502;9.146;2022-11-03T01:14:43;67.72;;;35.58;;
24644;SDS011;12780;45.502;9.146;2022-11-03T01:17:14;69.30;;;34.70;;
24644;SDS011;12780;45.502;9.146;2022-11-03T01:19:42;62.22;;;35.50;;
24644;SDS011;12780;45.502;9.146;2022-11-03T01:22:08;63.22;;;33.85;;
24644;SDS011;12780;45.502;9.146;2022-11-03T01:24:34;65.35;;;34.60;;
24644;SDS011;12780;45.502;9.146;2022-11-03T01:27:00;59.55;;;34.05;;
24644;SDS011;12780;45.502;9.146;2022-11-03T01:29:25;67.38;;;35.88;;
24644;SDS011;12780;45.502;9.146;2022-11-03T01:31:51;69.35;;;34.88;;
24644;SDS011;12780;45.502;9.146;2022-11-03T01:34:18;62.92;;;35.13;;
24644;SDS011;12780;45.502;9.146;2022-11-03T01:36:44;64.63;;;34.75;;
24644;SDS011;12780;45.502;9.146;2022-11-03T01:39:11;64.15;;;35.10;;
24644;SDS011;12780;45.502;9.146;2022-11-03T01:41:38;65.07;;;34.88;;
24644;SDS011;12780;45.502;9.146;2022-11-03T01:46:41;66.78;;;35.50;;
24644;SDS011;12780;45.502;9.146;2022-11-03T01:49:28;61.80;;;33.88;;
24644;SDS011;12780;45.502;9.146;2022-11-03T01:51:56;66.70;;;36.10;;
24644;SDS011;12780;45.502;9.146;2022-11-03T01:54:29;65.10;;;36.25;;
24644;SDS011;12780;45.502;9.146;2022-11-03T01:56:58;72.93;;;36.47;;
24644;SDS011;12780;45.502;9.146;2022-11-03T01:59:24;61.03;;;33.65;;
24644;SDS011;12780;45.502;9.146;2022-11-03T02:01:51;67.03;;;35.35;;
24644;SDS011;12780;45.502;9.146;2022-11-03T02:04:21;62.63;;;34.58;;
24644;SDS011;12780;45.502;9.146;2022-11-03T02:09:59;63.65;;;35.17;;
24644;SDS011;12780;45.502;9.146;2022-11-03T02:12:25;70.38;;;35.80;;
24644;SDS011;12780;45.502;9.146;2022-11-03T02:14:55;63.67;;;35.28;;
24644;SDS011;12780;45.502;9.146;2022-11-03T02:17:24;69.75;;;35.63;;
24644;SDS011;12780;45.502;9.146;2022-11-03T02:20:00;69.20;;;36.30;;
24644;SDS011;12780;45.502;9.146;2022-11-03T02:25:13;64.45;;;34.33;;
24644;SDS011;12780;45.502;9.146;2022-11-03T02:27:58;66.97;;;35.78;;
24644;SDS011;12780;45.502;9.146;2022-11-03T02:30:25;64.10;;;35.88;;
24644;SDS011;12780;45.502;9.146;2022-11-03T02:32:57;73.97;;;36.83;;
24644;SDS011;12780;45.502;9.146;2022-11-03T02:35:41;75.63;;;36.75;;
24644;SDS011;12780;45.502;9.146;2022-11-03T02:38:13;66.78;;;35.78;;
24644;SDS011;12780;45.502;9.146;2022-11-03T02:40:42;72.55;;;35.47;;
24644;SDS011;12780;45.502;9.146;2022-11-03T02:43:11;63.38;;;34.92;;
24644;SDS011;12780;45.502;9.146;2022-11-03T02:45:40;75.93;;;35.55;;
24644;SDS011;12780;45.502;9.146;2022-11-03T02:48:08;66.28;;;35.47;;
24644;SDS011;12780;45.502;9.146;2022-11-03T02:50:36;66.10;;;35.08;;
24644;SDS011;12780;45.502;9.146;2022-11-03T02:53:02;73.57;;;35.35;;
24644;SDS011;12780;45.502;9.146;2022-11-03T02:55:37;66.80;;;35.80;;
24644;SDS011;12780;45.502;9.146;2022-11-03T03:01:02;70.97;;;35.85;;
24644;SDS011;12780;45.502;9.146;2022-11-03T03:03:43;73.80;;;35.17;;
24644;SDS011;12780;45.502;9.146;2022-11-03T03:06:15;72.53;;;35.50;;
24644;SDS011;12780;45.502;9.146;2022-11-03T03:08:49;72.22;;;35.20;;
24644;SDS011;12780;45.502;9.146;2022-11-03T03:11:22;74.13;;;35.53;;
24644;SDS011;12780;45.502;9.146;2022-11-03T03:14:04;77.68;;;37.05;;
24644;SDS011;12780;45.502;9.146;2022-11-03T03:16:41;71.50;;;36.53;;
24644;SDS011;12780;45.502;9.146;2022-11-03T03:19:17;73.10;;;36.60;;
24644;SDS011;12780;45.502;9.146;2022-11-03T03:21:48;81.57;;;37.22;;
24644;SDS011;12780;45.502;9.146;2022-11-03T03:24:18;72.07;;;36.05;;
24644;SDS011;12780;45.502;9.146;2022-11-03T03:26:55;72.25;;;37.65;;
24644;SDS011;12780;45.502;9.146;2022-11-03T03:29:26;72.95;;;36.47;;
24644;SDS011;12780;45.502;9.146;2022-11-03T03:31:56;75.63;;;37.55;;
24644;SDS011;12780;45.502;9.146;2022-11-03T03:34:25;75.65;;;38.63;;
24644;SDS011;12780;45.502;9.146;2022-11-03T03:36:52;84.03;;;37.65;;
24644;SDS011;12780;45.502;9.146;2022-11-03T03:39:21;81.13;;;37.83;;
24644;SDS011;12780;45.502;9.146;2022-11-03T03:41:50;79.75;;;38.83;;
24644;SDS011;12780;45.502;9.146;2022-11-03T03:44:17;81.05;;;38.97;;
24644;SDS011;12780;45.502;9.146;2022-11-03T03:46:45;75.30;;;39.20;;
24644;SDS011;12780;45.502;9.146;2022-11-03T03:49:15;80.45;;;39.45;;
24644;SDS011;12780;45.502;9.146;2022-11-03T03:51:40;84.63;;;39.15;;
24644;SDS011;12780;45.502;9.146;2022-11-03T03:54:07;79.95;;;37.90;;
24644;SDS011;12780;45.502;9.146;2022-11-03T03:56:37;84.75;;;40.55;;
24644;SDS011;12780;45.502;9.146;2022-11-03T03:59:11;79.50;;;38.88;;
24644;SDS011;12780;45.502;9.146;2022-11-03T04:01:37;76.60;;;39.22;;
24644;SDS011;12780;45.502;9.146;2022-11-03T04:04:02;79.82;;;39.42;;
24644;SDS011;12780;45.502;9.146;2022-11-03T04:06:28;81.75;;;39.55;;
24644;SDS011;12780;45.502;9.146;2022-11-03T04:08:53;85.25;;;40.45;;
24644;SDS011;12780;45.502;9.146;2022-11-03T04:11:19;73.70;;;37.75;;
24644;SDS011;12780;45.502;9.146;2022-11-03T04:14:03;79.35;;;38.97;;
24644;SDS011;12780;45.502;9.146;2022-11-03T04:16:47;75.65;;;38.35;;
24644;SDS011;12780;45.502;9.146;2022-11-03T04:19:31;79.82;;;39.90;;
24644;SDS011;12780;45.502;9.146;2022-11-03T04:25:00;75.32;;;38.33;;
24644;SDS011;12780;45.502;9.146;2022-11-03T04:27:30;82.10;;;39.70;;
24644;SDS011;12780;45.502;9.146;2022-11-03T04:29:59;73.60;;;38.53;;
24644;SDS011;12780;45.502;9.146;2022-11-03T04:32:27;81.75;;;39.63;;
24644;SDS011;12780;45.502;9.146;2022-11-03T04:34:52;77.07;;;39.55;;
24644;SDS011;12780;45.502;9.146;2022-11-03T04:37:18;75.10;;;40.10;;
24644;SDS011;12780;45.502;9.146;2022-11-03T04:39:44;73.72;;;39.30;;
24644;SDS011;12780;45.502;9.146;2022-11-03T04:42:19;84.63;;;40.85;;
24644;SDS011;12780;45.502;9.146;2022-11-03T04:44:46;82.93;;;39.00;;
24644;SDS011;12780;45.502;9.146;2022-11-03T04:47:13;80.80;;;40.40;;
24644;SDS011;12780;45.502;9.146;2022-11-03T04:49:41;80.38;;;39.20;;
24644;SDS011;12780;45.502;9.146;2022-11-03T04:52:14;92.22;;;42.65;;
24644;SDS011;12780;45.502;9.146;2022-11-03T04:54:42;93.22;;;43.85;;
24644;SDS011;12780;45.502;9.146;2022-11-03T04:57:11;89.07;;;44.33;;
24644;SDS011;12780;45.502;9.146;2022-11-03T04:59:38;85.68;;;43.80;;
24644;SDS011;12780;45.502;9.146;2022-11-03T05:02:10;91.10;;;45.42;;
24644;SDS011;12780;45.502;9.146;2022-11-03T05:04:38;97.80;;;47.90;;
24644;SDS011;12780;45.502;9.146;2022-11-03T05:07:20;93.40;;;47.00;;
24644;SDS011;12780;45.502;9.146;2022-11-03T05:09:58;100.28;;;48.63;;
24644;SDS011;12780;45.502;9.146;2022-11-03T05:12:24;102.60;;;47.15;;
24644;SDS011;12780;45.502;9.146;2022-11-03T05:14:50;102.95;;;47.92;;
24644;SDS011;12780;45.502;9.146;2022-11-03T05:17:24;99.53;;;49.10;;
24644;SDS011;12780;45.502;9.146;2022-11-03T05:20:01;97.75;;;46.92;;
24644;SDS011;12780;45.502;9.146;2022-11-03T05:22:29;93.65;;;46.65;;
24644;SDS011;12780;45.502;9.146;2022-11-03T05:24:59;92.72;;;44.13;;
24644;SDS011;12780;45.502;9.146;2022-11-03T05:27:27;87.22;;;44.47;;
24644;SDS011;12780;45.502;9.146;2022-11-03T05:29:53;81.18;;;43.08;;
24644;SDS011;12780;45.502;9.146;2022-11-03T05:32:23;88.43;;;43.10;;
24644;SDS011;12780;45.502;9.146;2022-11-03T05:34:52;84.15;;;42.05;;
24644;SDS011;12780;45.502;9.146;2022-11-03T05:39:59;80.40;;;40.58;;
24644;SDS011;12780;45.502;9.146;2022-11-03T05:42:38;76.00;;;39.45;;
24644;SDS011;12780;45.502;9.146;2022-11-03T05:45:22;75.53;;;38.50;;
24644;SDS011;12780;45.502;9.146;2022-11-03T05:47:54;85.35;;;38.28;;
24644;SDS011;12780;45.502;9.146;2022-11-03T05:50:22;80.50;;;37.92;;
24644;SDS011;12780;45.502;9.146;2022-11-03T05:52:50;76.43;;;37.08;;
24644;SDS011;12780;45.502;9.146;2022-11-03T05:57:51;74.90;;;35.30;;
24644;SDS011;12780;45.502;9.146;2022-11-03T06:00:28;81.50;;;37.22;;
24644;SDS011;12780;45.502;9.146;2022-11-03T06:03:01;73.55;;;35.60;;
24644;SDS011;12780;45.502;9.146;2022-11-03T06:05:29;77.30;;;34.92;;
24644;SDS011;12780;45.502;9.146;2022-11-03T06:07:56;67.68;;;33.55;;
24644;SDS011;12780;45.502;9.146;2022-11-03T06:10:30;71.60;;;33.25;;
24644;SDS011;12780;45.502;9.146;2022-11-03T06:13:45;69.20;;;33.88;;
24644;SDS011;12780;45.502;9.146;2022-11-03T06:16:05;73.63;;;35.05;;
24644;SDS011;12780;45.502;9.146;2022-11-03T06:21:21;77.22;;;33.47;;
24644;SDS011;12780;45.502;9.146;2022-11-03T06:23:49;74.25;;;35.05;;
24644;SDS011;12780;45.502;9.146;2022-11-03T06:26:19;73.18;;;32.78;;
24644;SDS011;12780;45.502;9.146;2022-11-03T06:28:48;77.80;;;35.08;;
24644;SDS011;12780;45.502;9.146;2022-11-03T06:31:25;76.32;;;34.53;;
24644;SDS011;12780;45.502;9.146;2022-11-03T06:33:52;74.63;;;35.08;;
24644;SDS011;12780;45.502;9.146;2022-11-03T06:36:23;83.03;;;35.10;;
24644;SDS011;12780;45.502;9.146;2022-11-03T06:38:55;81.93;;;35.58;;
24644;SDS011;12780;45.502;9.146;2022-11-03T06:41:26;81.05;;;35.47;;
24644;SDS011;12780;45.502;9.146;2022-11-03T06:43:55;79.93;;;36.08;;
24644;SDS011;12780;45.502;9.146;2022-11-03T06:48:48;66.05;;;33.83;;
24644;SDS011;12780;45.502;9.146;2022-11-03T06:51:26;73.30;;;33.35;;
24644;SDS011;12780;45.502;9.146;2022-11-03T06:53:53;62.97;;;32.42;;
24644;SDS011;12780;45.502;9.146;2022-11-03T06:56:22;70.15;;;33.00;;
24644;SDS011;12780;45.502;9.146;2022-11-03T06:58:55;65.00;;;31.65;;
24644;SDS011;12780;45.502;9.146;2022-11-03T07:01:25;68.05;;;32.85;;
24644;SDS011;12780;45.502;9.146;2022-11-03T07:03:58;73.30;;;33.95;;
24644;SDS011;12780;45.502;9.146;2022-11-03T07:06:35;69.43;;;33.05;;
24644;SDS011;12780;45.502;9.146;2022-11-03T07:09:02;70.20;;;32.90;;
24644;SDS011;12780;45.502;9.146;2022-11-03T07:11:33;69.70;;;32.00;;
24644;SDS011;12780;45.502;9.146;2022-11-03T07:16:42;65.53;;;31.98;;
24644;SDS011;12780;45.502;9.146;2022-11-03T07:19:20;65.78;;;31.35;;
24644;SDS011;12780;45.502;9.146;2022-11-03T07:21:53;69.47;;;32.30;;
24644;SDS011;12780;45.502;9.146;2022-11-03T07:26:59;58.72;;;30.17;;
24644;SDS011;12780;45.502;9.146;2022-11-03T07:29:37;59.90;;;31.38;;
24644;SDS011;12780;45.502;9.146;2022-11-03T07:32:04;60.67;;;31.17;;
24644;SDS011;12780;45.502;9.146;2022-11-03T07:37:02;58.38;;;29.52;;
24644;SDS011;12780;45.502;9.146;2022-11-03T07:39:32;63.75;;;31.33;;
24644;SDS011;12780;45.502;9.146;2022-11-03T07:42:12;61.55;;;31.38;;
24644;SDS011;12780;45.502;9.146;2022-11-03T07:44:43;61.55;;;30.52;;
24644;SDS011;12780;45.502;9.146;2022-11-03T07:47:15;68.75;;;32.75;;
24644;SDS011;12780;45.502;9.146;2022-11-03T07:52:10;72.78;;;33.90;;
24644;SDS011;12780;45.502;9.146;2022-11-03T07:54:38;80.03;;;35.92;;
24644;SDS011;12780;45.502;9.146;2022-11-03T08:00:00;79.43;;;35.95;;
24644;SDS011;12780;45.502;9.146;2022-11-03T08:02:40;76.57;;;35.70;;
24644;SDS011;12780;45.502;9.146;2022-11-03T08:05:10;93.80;;;36.75;;
24644;SDS011;12780;45.502;9.146;2022-11-03T08:07:36;102.38;;;36.22;;
24644;SDS011;12780;45.502;9.146;2022-11-03T08:10:02;99.80;;;36.85;;
24644;SDS011;12780;45.502;9.146;2022-11-03T08:12:27;99.78;;;36.60;;
24644;SDS011;12780;45.502;9.146;2022-11-03T08:14:53;118.20;;;38.35;;
24644;SDS011;12780;45.502;9.146;2022-11-03T08:17:19;123.88;;;37.03;;
24644;SDS011;12780;45.502;9.146;2022-11-03T08:19:44;126.78;;;35.72;;
24644;SDS011;12780;45.502;9.146;2022-11-03T08:22:10;124.53;;;35.55;;
24644;SDS011;12780;45.502;9.146;2022-11-03T08:24:35;123.72;;;35.67;;
24644;SDS011;12780;45.502;9.146;2022-11-03T08:27:01;111.85;;;33.08;;
24644;SDS011;12780;45.502;9.146;2022-11-03T08:29:27;125.00;;;34.05;;
24644;SDS011;12780;45.502;9.146;2022-11-03T08:31:53;121.68;;;34.60;;
24644;SDS011;12780;45.502;9.146;2022-11-03T08:34:19;131.98;;;35.40;;
24644;SDS011;12780;45.502;9.146;2022-11-03T08:36:44;115.35;;;33.10;;
24644;SDS011;12780;45.502;9.146;2022-11-03T08:39:10;106.95;;;32.20;;
24644;SDS011;12780;45.502;9.146;2022-11-03T08:41:35;112.38;;;33.33;;
24644;SDS011;12780;45.502;9.146;2022-11-03T08:44:01;114.93;;;31.55;;
24644;SDS011;12780;45.502;9.146;2022-11-03T08:46:27;120.68;;;33.25;;
24644;SDS011;12780;45.502;9.146;2022-11-03T08:48:54;112.40;;;31.92;;
24644;SDS011;12780;45.502;9.146;2022-11-03T08:51:19;111.53;;;32.15;;
24644;SDS011;12780;45.502;9.146;2022-11-03T08:53:45;96.72;;;30.42;;
24644;SDS011;12780;45.502;9.146;2022-11-03T08:56:14;99.13;;;29.40;;
24644;SDS011;12780;45.502;9.146;2022-11-03T08:58:40;101.30;;;29.67;;
24644;SDS011;12780;45.502;9.146;2022-11-03T09:01:07;104.72;;;28.85;;
24644;SDS011;12780;45.502;9.146;2022-11-03T09:03:33;94.93;;;28.83;;
24644;SDS011;12780;45.502;9.146;2022-11-03T09:05:59;90.43;;;29.27;;
24644;SDS011;12780;45.502;9.146;2022-11-03T09:08:24;90.35;;;30.83;;
24644;SDS011;12780;45.502;9.146;2022-11-03T09:10:50;101.10;;;32.00;;
24644;SDS011;12780;45.502;9.146;2022-11-03T09:13:15;118.32;;;34.17;;
24644;SDS011;12780;45.502;9.146;2022-11-03T09:15:41;249.23;;;45.13;;
24644;SDS011;12780;45.502;9.146;2022-11-03T09:18:06;151.60;;;35.60;;
24644;SDS011;12780;45.502;9.146;2022-11-03T09:20:32;117.95;;;33.00;;
24644;SDS011;12780;45.502;9.146;2022-11-03T09:22:58;108.65;;;31.92;;
24644;SDS011;12780;45.502;9.146;2022-11-03T09:25:23;103.95;;;33.65;;
24644;SDS011;12780;45.502;9.146;2022-11-03T09:27:49;91.65;;;30.85;;
24644;SDS011;12780;45.502;9.146;2022-11-03T09:30:14;86.10;;;29.20;;
24644;SDS011;12780;45.502;9.146;2022-11-03T09:32:41;86.50;;;30.52;;
24644;SDS011;12780;45.502;9.146;2022-11-03T09:35:07;88.28;;;28.92;;
24644;SDS011;12780;45.502;9.146;2022-11-03T09:37:33;75.20;;;27.45;;
24644;SDS011;12780;45.502;9.146;2022-11-03T09:39:59;81.15;;;28.63;;
24644;SDS011;12780;45.502;9.146;2022-11-03T09:42:26;78.72;;;28.95;;
24644;SDS011;12780;45.502;9.146;2022-11-03T09:44:54;77.32;;;26.80;;
24644;SDS011;12780;45.502;9.146;2022-11-03T09:47:26;76.03;;;28.17;;
24644;SDS011;12780;45.502;9.146;2022-11-03T09:49:57;72.63;;;26.83;;
24644;SDS011;12780;45.502;9.146;2022-11-03T09:52:23;68.85;;;26.88;;
24644;SDS011;12780;45.502;9.146;2022-11-03T09:54:50;63.65;;;26.52;;
24644;SDS011;12780;45.502;9.146;2022-11-03T09:57:19;65.68;;;26.20;;
24644;SDS011;12780;45.502;9.146;2022-11-03T09:59:46;74.70;;;27.17;;
24644;SDS011;12780;45.502;9.146;2022-11-03T10:02:26;70.43;;;27.58;;
24644;SDS011;12780;45.502;9.146;2022-11-03T10:04:55;74.75;;;27.60;;
24644;SDS011;12780;45.502;9.146;2022-11-03T10:07:21;102.60;;;31.38;;
24644;SDS011;12780;45.502;9.146;2022-11-03T10:09:50;126.20;;;33.95;;
24644;SDS011;12780;45.502;9.146;2022-11-03T10:12:17;69.80;;;26.90;;
24644;SDS011;12780;45.502;9.146;2022-11-03T10:14:44;68.22;;;25.58;;
24644;SDS011;12780;45.502;9.146;2022-11-03T10:17:15;63.80;;;24.80;;
24644;SDS011;12780;45.502;9.146;2022-11-03T10:19:43;74.82;;;26.90;;
24644;SDS011;12780;45.502;9.146;2022-11-03T13:04:41;39.70;;;20.27;;
24644;SDS011;12780;45.502;9.146;2022-11-03T13:07:07;43.67;;;19.10;;
24644;SDS011;12780;45.502;9.146;2022-11-03T13:09:32;39.97;;;20.05;;
24644;SDS011;12780;45.502;9.146;2022-11-03T13:11:59;40.28;;;20.05;;
24644;SDS011;12780;45.502;9.146;2022-11-03T13:14:44;38.70;;;19.80;;
24644;SDS011;12780;45.502;9.146;2022-11-03T13:17:09;36.55;;;19.83;;
24644;SDS011;12780;45.502;9.146;2022-11-03T13:19:35;36.92;;;19.63;;
24644;SDS011;12780;45.502;9.146;2022-11-03T13:22:00;47.33;;;20.52;;
24644;SDS011;12780;45.502;9.146;2022-11-03T13:24:26;39.67;;;19.85;;
24644;SDS011;12780;45.502;9.146;2022-11-03T13:26:51;35.92;;;19.15;;
24644;SDS011;12780;45.502;9.146;2022-11-03T13:29:17;41.85;;;20.30;;
24644;SDS011;12780;45.502;9.146;2022-11-03T13:31:42;37.45;;;19.70;;
24644;SDS011;12780;45.502;9.146;2022-11-03T13:34:08;40.70;;;19.73;;
24644;SDS011;12780;45.502;9.146;2022-11-03T13:36:33;35.33;;;18.27;;
24644;SDS011;12780;45.502;9.146;2022-11-03T13:38:59;36.10;;;18.73;;
24644;SDS011;12780;45.502;9.146;2022-11-03T13:41:24;39.13;;;19.55;;
24644;SDS011;12780;45.502;9.146;2022-11-03T13:43:50;38.40;;;20.38;;
24644;SDS011;12780;45.502;9.146;2022-11-03T13:46:16;35.78;;;19.63;;
24644;SDS011;12780;45.502;9.146;2022-11-03T13:48:41;36.92;;;20.13;;
24644;SDS011;12780;45.502;9.146;2022-11-03T13:51:07;37.10;;;20.17;;
24644;SDS011;12780;45.502;9.146;2022-11-03T13:53:35;33.00;;;19.42;;
24644;SDS011;12780;45.502;9.146;2022-11-03T13:56:01;36.53;;;18.95;;
24644;SDS011;12780;45.502;9.146;2022-11-03T13:58:27;42.20;;;19.20;;
24644;SDS011;12780;45.502;9.146;2022-11-03T14:00:52;33.80;;;19.15;;
24644;SDS011;12780;45.502;9.146;2022-11-03T14:03:18;38.15;;;18.88;;
24644;SDS011;12780;45.502;9.146;2022-11-03T14:05:43;37.17;;;20.10;;
24644;SDS011;12780;45.502;9.146;2022-11-03T14:08:09;35.78;;;19.17;;
24644;SDS011;12780;45.502;9.146;2022-11-03T14:10:34;37.45;;;19.33;;
24644;SDS011;12780;45.502;9.146;2022-11-03T14:13:00;36.00;;;19.40;;
24644;SDS011;12780;45.502;9.146;2022-11-03T14:15:25;40.88;;;19.10;;
24644;SDS011;12780;45.502;9.146;2022-11-03T14:17:51;37.67;;;19.27;;
